Columbia, Missouri
Current Conditions -  °F | °C
As of 7:54 PM on Friday 28 Nov 2014 (Local Time) from KCOU Reporting Station
Clear Clear  
Wind Chill:   Ceiling: Unl
Heat Index:   Visibility: 10mi
Dew Point:   Wind: 10mph
Humidity: 59%   Direction: 180°S
Pressure: 29.84"   Gusts: NA
Location:  38.95°N, 92.33°W
Report Text: KCOU 290154Z 18009KT 10SM CLR 09/02 A2984 RMK AO2 SLP109 T00940017
Loading
Personal Weather Stations






























Interactive Weather Map New forecast layout! Learn more

10-Day Weather Forecast

Advertisements
Track Severe Weather on mobile